Time;durP1;ratioP1;P1;durP2;ratioP2;P2;SDS_P1;SDS_P2;PMS_P1;PMS_P2;Temp;Humidity;BMP_temperature;BMP_pressure;BME280_temperature;BME280_humidity;BME280_pressure;Samples;Min_cycle;Max_cycle;Signal;HPM_P1;HPM_P2
2023/06/30 00:02:23;;;;;;;16.25;5.65;;;14.00;99.90;;;;;;5030076;28;20541;-81
2023/06/30 00:04:49;;;;;;;15.52;5.60;;;13.90;99.90;;;;;;5031706;28;20094;-81
2023/06/30 00:07:15;;;;;;;14.38;5.72;;;13.90;99.90;;;;;;5032547;28;20071;-81
2023/06/30 00:09:40;;;;;;;14.02;6.00;;;13.90;99.90;;;;;;5018640;28;20543;-80
2023/06/30 00:12:09;;;;;;;11.25;5.20;;;13.80;99.90;;;;;;5030047;28;20047;-80
2023/06/30 00:14:34;;;;;;;9.25;5.70;;;13.80;99.90;;;;;;5027585;28;20438;-80
2023/06/30 00:17:00;;;;;;;10.93;5.10;;;13.80;99.90;;;;;;5060155;28;20037;-81
2023/06/30 00:19:26;;;;;;;12.18;5.35;;;13.70;99.90;;;;;;5024629;28;20079;-80
2023/06/30 00:21:52;;;;;;;9.85;5.63;;;13.70;99.90;;;;;;5030071;28;20040;-81
2023/06/30 00:24:18;;;;;;;12.75;5.22;;;13.70;99.90;;;;;;5018873;28;20102;-81
2023/06/30 00:26:44;;;;;;;10.27;5.55;;;13.70;99.90;;;;;;5016952;28;20620;-80
2023/06/30 00:29:10;;;;;;;11.77;5.38;;;13.60;99.90;;;;;;5024464;28;20122;-81
2023/06/30 00:31:36;;;;;;;8.68;4.93;;;13.60;99.90;;;;;;5009627;28;20067;-81
2023/06/30 00:34:02;;;;;;;13.02;5.45;;;13.60;99.90;;;;;;5017323;28;20034;-80
2023/06/30 00:36:31;;;;;;;9.85;5.22;;;13.60;99.90;;;;;;5027812;28;20086;-80
2023/06/30 00:38:56;;;;;;;12.10;5.38;;;13.50;99.90;;;;;;5030604;28;20159;-81
2023/06/30 00:41:22;;;;;;;12.55;5.85;;;13.50;99.90;;;;;;5029274;28;20136;-81
2023/06/30 00:43:48;;;;;;;9.65;5.75;;;13.50;99.90;;;;;;5017311;28;20526;-80
2023/06/30 00:46:17;;;;;;;13.85;5.85;;;13.40;99.90;;;;;;5025725;28;20044;-81
2023/06/30 00:48:43;;;;;;;11.00;5.53;;;13.40;99.90;;;;;;5021213;28;20451;-81
2023/06/30 00:51:09;;;;;;;11.10;5.53;;;13.40;99.90;;;;;;5010560;28;20041;-81
2023/06/30 00:53:35;;;;;;;13.13;5.57;;;13.30;99.90;;;;;;5013339;28;20042;-81
2023/06/30 00:56:01;;;;;;;10.27;5.93;;;13.30;99.90;;;;;;5035160;28;20049;-81
2023/06/30 00:58:27;;;;;;;10.40;5.53;;;13.20;99.90;;;;;;5012393;28;20128;-81
2023/06/30 01:00:59;;;;;;;13.77;5.75;;;13.20;99.90;;;;;;5017701;28;20362;-81
2023/06/30 01:03:35;;;;;;;10.82;5.70;;;13.20;99.90;;;;;;5014028;28;20052;-80
2023/06/30 01:06:17;;;;;;;10.82;5.68;;;13.20;99.90;;;;;;5025134;28;20053;-81
2023/06/30 01:08:45;;;;;;;16.80;5.75;;;13.10;99.90;;;;;;5026856;28;20454;-81
2023/06/30 01:11:12;;;;;;;12.15;5.38;;;13.10;99.90;;;;;;5031993;28;20041;-81
2023/06/30 01:13:38;;;;;;;11.70;5.63;;;13.10;99.90;;;;;;5013119;28;20468;-81
2023/06/30 01:16:09;;;;;;;11.50;5.10;;;13.00;99.90;;;;;;5059366;28;20353;-80
2023/06/30 01:18:36;;;;;;;12.77;5.22;;;13.00;99.90;;;;;;5015967;28;20063;-80
2023/06/30 01:21:04;;;;;;;14.25;5.50;;;12.90;99.90;;;;;;5010514;28;20045;-80
2023/06/30 01:23:51;;;;;;;16.40;6.20;;;12.90;99.90;;;;;;5030771;28;20504;-80
2023/06/30 01:26:18;;;;;;;7.80;5.28;;;12.90;99.90;;;;;;5016432;28;20037;-80
2023/06/30 01:28:44;;;;;;;12.15;5.35;;;12.80;99.90;;;;;;5028266;28;21256;-80
2023/06/30 01:31:10;;;;;;;13.30;5.28;;;12.80;99.90;;;;;;5036894;28;20056;-81
2023/06/30 01:33:37;;;;;;;9.93;5.22;;;12.80;99.90;;;;;;5028781;28;20049;-81
2023/06/30 01:36:04;;;;;;;7.95;4.63;;;12.80;99.90;;;;;;5060721;28;20456;-81
2023/06/30 01:38:30;;;;;;;11.68;5.25;;;12.70;99.90;;;;;;5018447;28;20497;-81
2023/06/30 01:40:57;;;;;;;12.45;5.63;;;12.70;99.90;;;;;;5014492;28;20068;-80
2023/06/30 01:43:24;;;;;;;10.75;5.22;;;12.60;99.90;;;;;;5014638;28;20045;-81
2023/06/30 01:45:50;;;;;;;11.75;5.13;;;12.60;99.90;;;;;;5031485;28;20152;-81
2023/06/30 01:48:16;;;;;;;8.63;4.75;;;12.50;99.90;;;;;;5030251;28;20171;-81
2023/06/30 01:50:44;;;;;;;17.00;5.63;;;12.50;99.90;;;;;;5032209;28;23070;-81
2023/06/30 01:53:09;;;;;;;11.52;5.10;;;12.50;99.90;;;;;;5031769;28;20116;-80
2023/06/30 01:55:35;;;;;;;10.40;4.50;;;12.40;99.90;;;;;;5015114;28;20152;-80
2023/06/30 01:58:01;;;;;;;8.55;4.60;;;12.40;99.90;;;;;;5021649;28;20110;-80
2023/06/30 02:00:27;;;;;;;13.10;5.10;;;12.40;99.90;;;;;;5035032;28;20064;-81
2023/06/30 02:02:52;;;;;;;10.52;4.22;;;12.30;99.90;;;;;;5034237;28;20045;-81
2023/06/30 02:05:18;;;;;;;15.95;4.60;;;12.30;99.90;;;;;;5037095;28;20033;-81
2023/06/30 02:07:44;;;;;;;9.77;4.97;;;12.30;99.90;;;;;;5020240;28;20173;-81
2023/06/30 02:10:09;;;;;;;10.65;4.88;;;12.20;99.90;;;;;;5021074;28;20398;-81
2023/06/30 02:12:35;;;;;;;7.95;4.80;;;12.20;99.90;;;;;;5035315;28;20037;-81
2023/06/30 02:15:01;;;;;;;17.15;5.10;;;12.20;99.90;;;;;;5018631;28;20037;-81
2023/06/30 02:17:32;;;;;;;7.78;4.88;;;12.20;99.90;;;;;;5030946;28;20230;-81
2023/06/30 02:20:06;;;;;;;11.90;4.65;;;12.20;99.90;;;;;;5032940;28;20040;-81
2023/06/30 02:22:32;;;;;;;14.32;4.72;;;12.10;99.90;;;;;;5018260;28;20555;-80
2023/06/30 02:24:58;;;;;;;11.90;4.78;;;12.20;99.90;;;;;;5028987;28;20445;-81
2023/06/30 02:27:24;;;;;;;14.07;4.90;;;12.10;99.90;;;;;;5016890;28;20514;-80
2023/06/30 02:29:51;;;;;;;10.73;4.43;;;12.10;99.90;;;;;;5032997;28;20128;-81
2023/06/30 02:32:17;;;;;;;12.80;4.40;;;12.00;99.90;;;;;;5017957;28;20663;-81
2023/06/30 02:34:42;;;;;;;10.20;4.50;;;12.00;99.90;;;;;;5016062;28;20037;-81
2023/06/30 02:37:08;;;;;;;9.13;4.57;;;12.00;99.90;;;;;;5035132;28;20066;-81
2023/06/30 02:39:36;;;;;;;13.52;4.82;;;12.00;99.90;;;;;;5046213;28;20103;-81
2023/06/30 02:42:03;;;;;;;7.53;4.47;;;12.00;99.90;;;;;;5055475;28;20721;-81
2023/06/30 02:44:28;;;;;;;12.60;4.38;;;12.00;99.90;;;;;;5035700;28;20350;-81
2023/06/30 02:46:54;;;;;;;10.50;4.57;;;11.90;99.90;;;;;;5048595;28;20136;-81
2023/06/30 02:49:20;;;;;;;11.93;4.72;;;11.90;99.90;;;;;;5013374;28;20438;-81
2023/06/30 02:51:45;;;;;;;12.23;4.75;;;11.90;99.90;;;;;;5036500;28;20341;-81
2023/06/30 02:54:11;;;;;;;11.88;4.50;;;11.90;99.90;;;;;;5028852;28;20067;-81
2023/06/30 02:56:36;;;;;;;12.18;4.75;;;11.90;99.90;;;;;;5066833;28;20047;-81
2023/06/30 02:59:05;;;;;;;9.80;4.15;;;11.80;99.90;;;;;;5032731;28;20436;-81
2023/06/30 03:01:30;;;;;;;13.68;4.72;;;11.80;99.90;;;;;;5021766;28;20402;-81
2023/06/30 03:03:56;;;;;;;15.07;4.90;;;11.90;99.90;;;;;;5020376;28;20463;-81
2023/06/30 03:06:23;;;;;;;8.55;4.35;;;11.80;99.90;;;;;;5035562;28;20089;-81
2023/06/30 03:08:48;;;;;;;13.27;4.47;;;11.80;99.90;;;;;;5034834;28;20053;-81
2023/06/30 03:11:14;;;;;;;11.85;4.95;;;11.80;99.90;;;;;;5022194;28;20052;-81
2023/06/30 03:13:40;;;;;;;10.52;4.43;;;11.80;99.90;;;;;;5015114;28;20562;-81
2023/06/30 03:16:07;;;;;;;11.05;5.47;;;11.80;99.90;;;;;;5067879;28;20045;-81
2023/06/30 03:18:33;;;;;;;11.30;4.85;;;11.80;99.90;;;;;;5028477;28;20056;-80
2023/06/30 03:20:59;;;;;;;11.35;5.00;;;11.90;99.90;;;;;;5036456;28;20419;-81
2023/06/30 03:23:25;;;;;;;9.57;4.60;;;11.80;99.90;;;;;;5051118;28;20044;-81
2023/06/30 03:25:50;;;;;;;10.90;4.78;;;11.80;99.90;;;;;;5021831;28;20040;-81
2023/06/30 03:28:16;;;;;;;10.52;4.55;;;11.80;99.90;;;;;;5067225;28;20522;-81
2023/06/30 03:30:41;;;;;;;10.77;4.68;;;11.80;99.90;;;;;;5034749;28;20456;-81
2023/06/30 03:33:07;;;;;;;11.70;4.63;;;11.80;99.90;;;;;;5029368;28;20221;-81
2023/06/30 03:35:33;;;;;;;9.65;4.65;;;11.80;99.90;;;;;;5030967;28;20517;-81
2023/06/30 03:37:59;;;;;;;10.25;4.43;;;11.80;99.90;;;;;;5019150;28;20047;-81
2023/06/30 03:40:24;;;;;;;10.27;4.80;;;11.70;99.90;;;;;;5030159;28;20189;-81
2023/06/30 03:42:50;;;;;;;9.65;4.72;;;11.70;99.90;;;;;;5024089;28;20744;-81
2023/06/30 03:45:16;;;;;;;10.90;4.57;;;11.70;99.90;;;;;;5033496;28;20128;-81
2023/06/30 03:47:42;;;;;;;8.05;4.20;;;11.70;99.90;;;;;;5034757;28;20131;-81
2023/06/30 03:50:08;;;;;;;11.30;5.32;;;11.60;99.90;;;;;;5033851;28;20486;-81
2023/06/30 03:52:34;;;;;;;10.30;4.60;;;11.60;99.90;;;;;;5064464;28;20075;-81
2023/06/30 03:54:59;;;;;;;8.40;4.93;;;11.70;99.90;;;;;;5018525;28;20124;-81
2023/06/30 03:57:25;;;;;;;8.65;4.75;;;11.70;99.90;;;;;;5032480;28;20059;-81
2023/06/30 03:59:54;;;;;;;15.60;6.47;;;11.70;99.90;;;;;;5018407;28;20417;-81
2023/06/30 04:02:19;;;;;;;11.30;4.55;;;11.70;99.90;;;;;;5036034;28;20092;-81
2023/06/30 04:04:45;;;;;;;8.52;4.60;;;11.70;99.90;;;;;;5033348;28;20136;-80
2023/06/30 04:07:11;;;;;;;14.18;4.82;;;11.70;99.90;;;;;;5026226;28;20073;-81
2023/06/30 04:09:36;;;;;;;10.15;5.18;;;11.70;99.90;;;;;;5032310;28;20051;-81
2023/06/30 04:12:02;;;;;;;8.65;4.38;;;11.80;99.90;;;;;;5031776;28;20112;-81
2023/06/30 04:14:28;;;;;;;8.82;5.03;;;11.70;99.90;;;;;;5029797;28;20075;-81
2023/06/30 04:16:53;;;;;;;10.15;4.65;;;11.80;99.90;;;;;;5032534;28;20032;-81
2023/06/30 04:19:19;;;;;;;12.10;4.25;;;11.80;99.90;;;;;;5063570;28;20040;-81
2023/06/30 04:21:45;;;;;;;11.25;5.05;;;11.80;99.90;;;;;;5033232;28;20701;-80
2023/06/30 04:24:10;;;;;;;9.60;5.10;;;11.90;99.90;;;;;;5060205;28;20040;-81
2023/06/30 04:26:36;;;;;;;10.05;4.78;;;12.00;99.90;;;;;;5028121;28;20130;-81
2023/06/30 04:29:02;;;;;;;9.35;4.97;;;12.10;99.90;;;;;;5020943;28;20129;-81
2023/06/30 04:31:28;;;;;;;11.82;4.88;;;12.20;99.90;;;;;;5064632;28;20135;-81
2023/06/30 04:33:53;;;;;;;9.55;4.32;;;12.30;99.90;;;;;;5023060;28;20032;-81
2023/06/30 04:36:20;;;;;;;12.90;4.78;;;12.40;99.90;;;;;;5033288;28;20040;-81
2023/06/30 04:38:50;;;;;;;9.32;4.75;;;12.40;99.90;;;;;;5053119;28;20079;-81
2023/06/30 04:41:16;;;;;;;15.07;4.95;;;12.50;99.90;;;;;;5033110;28;20131;-81
2023/06/30 04:43:43;;;;;;;9.98;4.70;;;12.60;99.90;;;;;;5013376;28;20040;-80
2023/06/30 04:46:09;;;;;;;7.38;4.70;;;12.70;99.90;;;;;;5028813;28;20045;-80
2023/06/30 04:48:35;;;;;;;14.25;5.25;;;12.80;99.90;;;;;;5031719;28;20364;-81
2023/06/30 04:51:01;;;;;;;12.98;4.97;;;12.90;99.90;;;;;;5031013;28;20496;-81
2023/06/30 04:53:27;;;;;;;10.82;5.25;;;13.00;99.90;;;;;;5064196;28;20079;-80
2023/06/30 04:55:52;;;;;;;7.85;4.10;;;13.00;99.90;;;;;;5036946;28;20036;-81
2023/06/30 04:58:18;;;;;;;12.23;4.47;;;13.10;99.90;;;;;;5066685;28;20082;-81
2023/06/30 05:00:44;;;;;;;9.52;4.53;;;13.20;99.90;;;;;;5033042;28;20036;-81
2023/06/30 05:03:10;;;;;;;11.63;4.93;;;13.30;99.90;;;;;;5035389;28;20183;-81
2023/06/30 05:05:36;;;;;;;11.18;4.70;;;13.30;99.90;;;;;;5063275;28;20040;-81
2023/06/30 05:08:02;;;;;;;8.02;4.35;;;13.40;99.90;;;;;;5035836;28;20102;-81
2023/06/30 05:10:28;;;;;;;11.43;4.32;;;13.50;99.90;;;;;;5037122;28;20052;-81
2023/06/30 05:12:53;;;;;;;7.47;4.30;;;13.60;99.90;;;;;;5030489;28;20401;-81
2023/06/30 05:15:19;;;;;;;11.00;4.88;;;13.70;99.90;;;;;;5034555;28;20063;-81
2023/06/30 05:17:45;;;;;;;11.63;4.70;;;13.70;99.90;;;;;;5062037;28;20036;-81
2023/06/30 05:20:11;;;;;;;9.93;4.32;;;13.90;99.90;;;;;;5033769;28;20708;-81
2023/06/30 05:22:36;;;;;;;9.50;4.05;;;13.90;99.90;;;;;;5031273;28;20260;-81
2023/06/30 05:25:02;;;;;;;7.63;4.20;;;14.10;99.90;;;;;;5018822;28;20051;-80
2023/06/30 05:27:28;;;;;;;9.77;4.53;;;14.20;99.90;;;;;;5035037;28;20112;-81
2023/06/30 05:29:54;;;;;;;9.82;3.97;;;14.30;99.90;;;;;;5046511;28;20107;-81
2023/06/30 05:32:19;;;;;;;11.90;4.30;;;14.40;99.90;;;;;;5063095;28;20028;-81
2023/06/30 05:34:48;;;;;;;12.63;4.18;;;14.60;99.90;;;;;;5029157;28;20534;-80
2023/06/30 05:37:14;;;;;;;7.38;3.50;;;14.70;99.90;;;;;;5062780;28;20463;-81
2023/06/30 05:39:39;;;;;;;7.43;3.60;;;14.80;99.90;;;;;;5050787;28;20048;-81
2023/06/30 05:42:05;;;;;;;7.53;4.07;;;15.00;99.90;;;;;;5048365;28;21606;-81
2023/06/30 05:44:31;;;;;;;6.90;3.85;;;15.20;99.90;;;;;;5038009;28;20348;-80
2023/06/30 05:46:56;;;;;;;6.50;4.20;;;15.20;99.90;;;;;;5050339;28;20123;-81
2023/06/30 05:49:22;;;;;;;9.20;3.53;;;15.10;99.90;;;;;;5034783;28;20053;-81
2023/06/30 05:51:48;;;;;;;7.82;3.40;;;15.30;99.90;;;;;;5020200;28;20137;-80
2023/06/30 05:54:14;;;;;;;7.35;3.30;;;15.20;99.90;;;;;;5050533;28;20200;-80
2023/06/30 05:56:40;;;;;;;8.82;3.67;;;15.30;99.90;;;;;;5048365;28;20044;-80
2023/06/30 05:59:10;;;;;;;9.25;3.63;;;15.30;99.90;;;;;;5019205;28;20073;-80
2023/06/30 06:01:38;;;;;;;6.65;3.35;;;15.30;99.90;;;;;;5028220;28;20189;-80
2023/06/30 06:04:08;;;;;;;7.68;3.28;;;15.60;99.90;;;;;;5028360;28;20225;-80
2023/06/30 06:06:34;;;;;;;9.18;4.28;;;15.90;99.90;;;;;;5028958;28;20052;-80
2023/06/30 06:08:59;;;;;;;10.02;3.28;;;16.00;99.90;;;;;;5062661;28;20032;-80
2023/06/30 06:11:25;;;;;;;8.60;3.58;;;16.10;99.90;;;;;;5060150;28;20639;-80
2023/06/30 06:13:50;;;;;;;7.35;3.28;;;16.30;99.90;;;;;;5048825;28;20627;-81
2023/06/30 06:16:18;;;;;;;10.73;3.00;;;16.10;99.90;;;;;;5013085;28;20389;-81
2023/06/30 06:18:47;;;;;;;12.60;3.15;;;16.00;99.90;;;;;;5031697;28;20114;-81
2023/06/30 06:21:13;;;;;;;6.50;3.33;;;16.10;99.90;;;;;;5036238;28;20436;-81
2023/06/30 06:23:38;;;;;;;5.70;2.88;;;16.10;99.90;;;;;;5028423;28;20493;-81
2023/06/30 06:26:04;;;;;;;10.05;2.90;;;16.10;99.90;;;;;;5029488;28;20572;-81
2023/06/30 06:28:30;;;;;;;6.90;2.97;;;16.20;99.90;;;;;;5027332;28;20051;-81
2023/06/30 06:30:55;;;;;;;6.15;2.72;;;16.30;99.90;;;;;;5031785;28;20090;-80
2023/06/30 06:33:21;;;;;;;8.10;2.90;;;16.40;99.90;;;;;;5067664;28;20039;-81
2023/06/30 06:35:51;;;;;;;8.95;2.88;;;16.50;99.90;;;;;;5032098;28;20453;-81
2023/06/30 06:38:18;;;;;;;3.95;2.50;;;16.80;99.90;;;;;;5031860;28;20033;-80
2023/06/30 06:40:47;;;;;;;7.43;2.63;;;16.90;99.90;;;;;;5014707;28;20057;-81
2023/06/30 06:43:13;;;;;;;6.20;2.30;;;16.90;99.90;;;;;;5017213;28;20550;-81
2023/06/30 06:45:38;;;;;;;4.38;2.28;;;17.10;99.90;;;;;;5019386;28;20044;-81
2023/06/30 06:48:24;;;;;;;8.88;2.25;;;17.00;99.90;;;;;;5019466;28;20125;-80
2023/06/30 06:50:56;;;;;;;;;;;17.10;99.90;;;;;;5054095;28;20037;-81
2023/06/30 06:53:33;;;;;;;6.70;2.40;;;17.10;99.90;;;;;;5036532;28;20286;-80
2023/06/30 06:56:00;;;;;;;6.30;2.40;;;17.20;99.90;;;;;;5016523;28;20049;-81
2023/06/30 06:58:32;;;;;;;8.27;2.55;;;17.20;99.90;;;;;;5037634;28;20041;-80
2023/06/30 07:00:58;;;;;;;8.05;2.47;;;17.30;99.90;;;;;;5032569;28;20149;-81
2023/06/30 07:03:24;;;;;;;6.13;2.17;;;17.50;99.90;;;;;;5032460;28;20049;-80
2023/06/30 07:05:50;;;;;;;10.02;2.70;;;17.70;99.90;;;;;;5032326;28;20064;-81
2023/06/30 07:08:18;;;;;;;4.82;1.55;;;17.80;99.90;;;;;;5031762;28;20048;-81
2023/06/30 07:10:47;;;;;;;6.70;1.90;;;17.80;99.90;;;;;;5022950;28;20040;-81
2023/06/30 07:13:16;;;;;;;7.63;1.88;;;17.70;99.90;;;;;;5067391;28;20119;-81
2023/06/30 07:15:41;;;;;;;4.85;1.70;;;17.80;99.90;;;;;;5063898;28;20053;-81
2023/06/30 07:18:07;;;;;;;5.43;1.67;;;18.00;99.90;;;;;;5065091;28;20095;-81
2023/06/30 07:20:33;;;;;;;7.53;2.22;;;18.20;99.90;;;;;;5017134;28;20036;-81
2023/06/30 07:22:58;;;;;;;5.43;1.85;;;18.40;99.90;;;;;;5032582;28;20044;-81
2023/06/30 07:25:25;;;;;;;4.20;1.70;;;18.10;99.90;;;;;;5031173;28;20143;-81
2023/06/30 07:27:55;;;;;;;5.03;2.13;;;17.90;99.90;;;;;;5034184;28;20183;-81
2023/06/30 07:30:23;;;;;;;8.43;1.95;;;17.80;99.90;;;;;;5068945;28;20094;-81
2023/06/30 07:32:49;;;;;;;4.82;1.88;;;17.60;99.90;;;;;;5068243;28;20456;-81
2023/06/30 07:35:18;;;;;;;3.88;1.42;;;17.70;99.90;;;;;;5031833;28;20120;-81
2023/06/30 07:37:45;;;;;;;3.97;1.80;;;17.90;99.90;;;;;;5033959;28;20044;-81
2023/06/30 07:40:11;;;;;;;3.78;1.75;;;18.00;99.90;;;;;;5032075;28;20263;-81
2023/06/30 07:42:38;;;;;;;4.18;2.20;;;18.00;99.90;;;;;;5034227;28;20068;-81
2023/06/30 07:45:13;;;;;;;9.10;2.17;;;18.10;99.90;;;;;;5019754;28;20158;-81
2023/06/30 07:47:42;;;;;;;3.70;1.80;;;18.00;99.90;;;;;;5033612;28;20261;-80
2023/06/30 07:50:12;;;;;;;4.82;1.60;;;17.70;99.90;;;;;;5066989;28;20317;-82
2023/06/30 07:52:47;;;;;;;5.93;1.98;;;17.70;99.90;;;;;;5046560;28;20506;-81
2023/06/30 07:55:15;;;;;;;3.35;1.60;;;17.90;99.90;;;;;;5016708;28;20037;-81
2023/06/30 07:57:42;;;;;;;5.35;1.98;;;18.00;99.90;;;;;;5028659;28;20072;-81
2023/06/30 08:00:10;;;;;;;5.82;1.58;;;18.30;99.90;;;;;;5047965;28;20043;-80
2023/06/30 08:02:36;;;;;;;7.43;2.10;;;18.40;99.90;;;;;;5031557;28;20092;-81
2023/06/30 08:05:03;;;;;;;5.10;1.67;;;18.50;99.90;;;;;;5048531;28;20037;-81
2023/06/30 08:07:29;;;;;;;3.67;1.40;;;18.40;99.90;;;;;;5064956;28;20043;-81
2023/06/30 08:09:54;;;;;;;5.72;1.60;;;18.70;99.90;;;;;;5033851;28;20048;-81
2023/06/30 08:12:20;;;;;;;5.47;1.80;;;18.90;99.90;;;;;;5048089;28;20524;-81
2023/06/30 08:14:48;;;;;;;6.18;1.60;;;18.80;99.90;;;;;;5028648;28;20527;-81
2023/06/30 08:17:15;;;;;;;5.13;1.67;;;18.20;99.90;;;;;;5032914;28;20068;-81
2023/06/30 08:19:41;;;;;;;4.32;1.60;;;18.80;99.90;;;;;;5029578;28;20419;-81
2023/06/30 08:22:09;;;;;;;3.22;1.33;;;19.00;99.90;;;;;;5061960;28;20049;-81
2023/06/30 08:24:34;;;;;;;2.72;1.30;;;19.20;99.90;;;;;;5035406;28;20044;-81
2023/06/30 08:27:00;;;;;;;7.70;1.60;;;19.20;99.90;;;;;;5035769;28;20480;-81
2023/06/30 08:29:26;;;;;;;4.40;1.40;;;19.30;99.90;;;;;;5063405;28;20040;-81
2023/06/30 08:31:52;;;;;;;5.63;1.60;;;19.30;99.90;;;;;;5019803;28;20033;-81
2023/06/30 08:34:18;;;;;;;6.15;1.83;;;19.50;99.90;;;;;;5010524;28;20032;-81
2023/06/30 08:36:44;;;;;;;3.13;1.48;;;19.40;99.90;;;;;;5034013;28;20635;-81
2023/06/30 08:39:11;;;;;;;5.10;1.33;;;19.60;99.90;;;;;;5048860;28;20048;-81
2023/06/30 08:41:38;;;;;;;2.25;1.15;;;19.10;99.90;;;;;;5015157;28;20147;-81
2023/06/30 08:44:04;;;;;;;5.10;1.60;;;18.50;99.90;;;;;;5046382;28;20036;-82
2023/06/30 08:46:31;;;;;;;7.22;1.42;;;18.70;99.90;;;;;;5046347;28;20063;-81
2023/06/30 08:48:57;;;;;;;4.40;1.20;;;18.80;99.90;;;;;;5023119;28;20281;-81
2023/06/30 08:51:24;;;;;;;2.53;1.00;;;18.90;99.90;;;;;;5034386;28;20325;-81
2023/06/30 08:53:51;;;;;;;5.13;1.20;;;19.40;99.90;;;;;;5063356;28;20095;-81
2023/06/30 08:56:17;;;;;;;2.28;1.02;;;19.30;99.90;;;;;;5032783;28;20334;-81
2023/06/30 08:58:43;;;;;;;3.42;1.17;;;19.40;99.90;;;;;;5065250;28;20055;-81
2023/06/30 09:01:10;;;;;;;3.42;1.35;;;19.50;99.90;;;;;;5015790;28;20053;-82
2023/06/30 09:03:36;;;;;;;2.67;1.25;;;19.60;99.90;;;;;;5029631;28;20049;-81
2023/06/30 09:06:03;;;;;;;3.75;1.50;;;19.60;99.90;;;;;;5047194;28;20059;-81
2023/06/30 09:08:47;;;;;;;1.73;1.10;;;19.70;99.90;;;;;;5051148;28;20536;-82
2023/06/30 09:11:16;;;;;;;3.03;1.33;;;19.80;99.90;;;;;;5067383;28;20044;-81
2023/06/30 09:13:44;;;;;;;2.67;1.10;;;20.20;99.90;;;;;;5030073;28;20037;-81
2023/06/30 09:16:17;;;;;;;2.90;1.17;;;20.30;99.90;;;;;;5028940;28;20127;-81
2023/06/30 09:18:45;;;;;;;2.72;1.00;;;20.40;99.90;;;;;;5032750;28;20044;-81
2023/06/30 09:21:12;;;;;;;4.85;1.10;;;20.40;99.90;;;;;;5029032;28;20157;-81
2023/06/30 09:23:39;;;;;;;4.18;1.20;;;20.20;99.90;;;;;;5029661;28;20428;-81
2023/06/30 09:26:12;;;;;;;5.75;1.40;;;19.80;99.90;;;;;;5032358;28;20049;-81
2023/06/30 09:28:40;;;;;;;5.28;1.60;;;19.60;99.90;;;;;;5060874;28;20033;-81
2023/06/30 09:31:05;;;;;;;3.30;1.17;;;19.40;99.90;;;;;;5028478;28;20416;-81
2023/06/30 09:33:34;;;;;;;3.45;1.20;;;19.90;99.90;;;;;;5027348;28;20051;-80
2023/06/30 09:36:02;;;;;;;3.05;1.42;;;20.20;99.90;;;;;;5029966;28;20045;-81
2023/06/30 09:38:28;;;;;;;2.17;1.45;;;20.20;99.90;;;;;;5029486;28;20229;-81
2023/06/30 09:40:54;;;;;;;3.67;1.48;;;20.10;99.90;;;;;;5017990;28;20053;-81
2023/06/30 09:43:22;;;;;;;3.20;0.90;;;20.50;99.90;;;;;;5032579;28;20072;-81
2023/06/30 09:45:55;;;;;;;5.30;1.23;;;20.50;99.90;;;;;;5044981;28;20118;-80
2023/06/30 09:48:31;;;;;;;3.08;1.35;;;20.60;99.90;;;;;;5035314;28;20189;-81
2023/06/30 09:50:58;;;;;;;3.95;1.50;;;21.00;99.90;;;;;;5065257;28;20068;-81
2023/06/30 09:53:23;;;;;;;3.47;1.25;;;20.30;99.90;;;;;;5033355;28;20090;-81
2023/06/30 09:55:51;;;;;;;7.80;1.25;;;20.10;99.90;;;;;;5064149;28;20052;-80
2023/06/30 09:58:19;;;;;;;2.55;1.25;;;20.70;99.90;;;;;;5060887;28;20059;-81
2023/06/30 10:00:46;;;;;;;2.22;1.05;;;21.00;99.90;;;;;;5016011;28;20156;-80
2023/06/30 10:03:16;;;;;;;1.20;0.70;;;21.20;99.90;;;;;;5019813;28;20487;-81
2023/06/30 10:05:44;;;;;;;3.15;1.10;;;21.20;99.90;;;;;;5060443;28;20052;-80
2023/06/30 10:08:12;;;;;;;3.08;1.10;;;20.70;99.90;;;;;;5019059;28;20079;-81
2023/06/30 10:10:43;;;;;;;3.20;1.17;;;20.30;34.60;;;;;;5035924;28;20048;-80
2023/06/30 10:13:11;;;;;;;3.28;1.50;;;20.90;99.90;;;;;;5039618;28;20047;-81
2023/06/30 10:15:37;;;;;;;2.00;1.48;;;21.30;83.60;;;;;;5018475;28;20055;-81
2023/06/30 10:18:05;;;;;;;3.13;1.23;;;21.20;99.90;;;;;;5036971;28;20348;-81
2023/06/30 10:20:30;;;;;;;2.38;1.40;;;20.60;99.90;;;;;;5035423;28;20036;-81
2023/06/30 10:23:00;;;;;;;4.40;1.30;;;21.00;99.90;;;;;;5035104;28;20097;-81
2023/06/30 10:25:28;;;;;;;3.00;1.40;;;20.60;1.00;;;;;;5064029;28;20048;-81
2023/06/30 10:27:54;;;;;;;6.78;1.60;;;20.60;99.90;;;;;;5033191;28;20048;-80
2023/06/30 10:30:20;;;;;;;7.72;1.63;;;20.70;99.90;;;;;;5038032;28;20044;-80
2023/06/30 10:32:46;;;;;;;7.10;1.30;;;21.40;99.90;;;;;;5036109;28;20468;-80
2023/06/30 10:35:14;;;;;;;5.88;1.55;;;21.40;99.90;;;;;;5048869;28;20072;-80
2023/06/30 10:37:41;;;;;;;7.30;1.45;;;21.50;1.00;;;;;;5032230;28;20419;-81
2023/06/30 10:40:27;;;;;;;5.60;1.70;;;20.70;1.00;;;;;;5030337;28;20399;-81
2023/06/30 10:42:55;;;;;;;1.73;1.23;;;20.60;1.00;;;;;;5019683;28;20123;-80
2023/06/30 10:45:29;;;;;;;2.38;1.00;;;21.30;99.90;;;;;;5030210;28;20123;-80
2023/06/30 10:47:55;;;;;;;9.50;1.42;;;21.80;1.00;;;;;;5059555;28;20041;-81
2023/06/30 10:50:21;;;;;;;3.83;1.30;;;21.60;99.90;;;;;;5031486;28;20041;-81
2023/06/30 10:52:52;;;;;;;6.25;1.42;;;21.80;1.00;;;;;;5017756;28;20491;-80
2023/06/30 10:55:25;;;;;;;2.92;1.17;;;21.80;99.90;;;;;;5017189;28;20046;-81
2023/06/30 10:57:53;;;;;;;3.08;1.45;;;20.90;1.00;;;;;;5013364;28;20123;-81
2023/06/30 11:00:24;;;;;;;4.20;1.10;;;20.60;99.90;;;;;;5029532;28;20483;-80
2023/06/30 11:02:56;;;;;;;2.70;1.30;;;21.30;99.90;;;;;;5030129;28;20045;-80
2023/06/30 11:05:25;;;;;;;3.40;1.25;;;21.70;99.90;;;;;;5030744;28;20132;-80
2023/06/30 11:07:53;;;;;;;2.03;1.20;;;22.10;99.90;;;;;;5032150;28;20033;-81
2023/06/30 11:10:50;;;;;;;4.10;1.20;;;22.70;99.90;;;;;;5034697;28;20037;-81
2023/06/30 11:13:15;;;;;;;2.63;1.27;;;22.00;99.90;;;;;;5017646;28;20128;-81
2023/06/30 11:15:45;;;;;;;5.82;1.50;;;21.40;6.10;;;;;;5019025;28;20132;-80
2023/06/30 11:18:11;;;;;;;3.08;1.40;;;21.10;19.00;;;;;;5030702;28;20053;-81
2023/06/30 11:20:37;;;;;;;4.80;1.58;;;20.80;99.90;;;;;;5027984;28;20052;-80
2023/06/30 11:23:17;;;;;;;5.15;2.05;;;20.80;99.90;;;;;;5030549;28;20534;-81
2023/06/30 11:25:45;;;;;;;6.10;1.92;;;21.00;99.90;;;;;;5030826;28;20053;-81
2023/06/30 11:28:12;;;;;;;3.38;1.70;;;21.40;1.00;;;;;;5014879;28;20053;-80
2023/06/30 11:30:41;;;;;;;4.78;1.65;;;21.80;1.00;;;;;;5024524;28;20056;-81
2023/06/30 11:33:07;;;;;;;6.15;1.73;;;22.10;23.10;;;;;;5017502;28;20581;-80
2023/06/30 11:35:36;;;;;;;5.07;1.58;;;22.90;99.90;;;;;;5015459;28;20116;-80
2023/06/30 11:38:03;;;;;;;4.07;1.45;;;23.60;99.90;;;;;;5036099;28;20381;-80
2023/06/30 11:40:29;;;;;;;4.88;1.40;;;23.20;1.00;;;;;;5026638;28;20057;-80
2023/06/30 11:42:54;;;;;;;3.40;1.90;;;23.00;28.80;;;;;;5029107;28;20474;-81
2023/06/30 11:45:21;;;;;;;5.32;1.67;;;22.50;1.00;;;;;;5012032;28;20045;-81
2023/06/30 11:47:50;;;;;;;4.80;1.90;;;22.30;99.90;;;;;;5025424;28;20056;-81
2023/06/30 11:50:16;;;;;;;3.13;1.88;;;22.30;99.90;;;;;;5033538;28;20287;-80
2023/06/30 11:52:43;;;;;;;2.75;1.50;;;22.70;99.90;;;;;;5018879;28;20470;-80
2023/06/30 11:55:11;;;;;;;2.75;1.45;;;23.80;99.90;;;;;;5030068;28;20060;-81
2023/06/30 11:57:38;;;;;;;6.72;1.60;;;24.00;99.90;;;;;;5017511;28;20189;-80
2023/06/30 12:00:08;;;;;;;2.22;1.40;;;23.70;99.90;;;;;;5028758;28;20116;-80
2023/06/30 12:02:34;;;;;;;3.38;1.48;;;23.10;99.90;;;;;;5031888;28;20046;-80
2023/06/30 12:05:01;;;;;;;6.80;1.80;;;22.90;95.50;;;;;;5034519;28;20385;-81
2023/06/30 12:07:27;;;;;;;2.83;1.50;;;22.40;1.00;;;;;;5017136;28;20158;-80
2023/06/30 12:10:00;;;;;;;2.42;1.70;;;22.10;1.00;;;;;;5019108;28;20108;-80
2023/06/30 12:12:29;;;;;;;4.20;1.70;;;21.90;1.00;;;;;;5010567;28;20040;-81
2023/06/30 12:14:58;;;;;;;3.05;1.63;;;21.70;1.00;;;;;;5014891;28;20049;-80
2023/06/30 12:17:28;;;;;;;2.80;1.55;;;22.60;1.00;;;;;;5016352;28;20056;-80
2023/06/30 12:19:54;;;;;;;2.15;1.60;;;23.10;1.00;;;;;;5028044;28;20056;-80
2023/06/30 12:22:25;;;;;;;4.47;1.63;;;23.40;99.90;;;;;;5017303;28;20641;-81
2023/06/30 12:24:59;;;;;;;4.32;1.40;;;22.50;99.90;;;;;;5016874;28;20126;-80
2023/06/30 12:27:27;;;;;;;3.50;1.40;;;21.90;99.90;;;;;;5030607;28;20282;-81
2023/06/30 12:29:54;;;;;;;8.23;1.50;;;21.80;99.90;;;;;;5027896;28;20040;-81
2023/06/30 12:32:20;;;;;;;3.88;1.40;;;21.80;99.90;;;;;;5016079;28;20071;-80
2023/06/30 12:34:46;;;;;;;2.90;1.60;;;21.90;99.90;;;;;;5059328;28;20033;-80
2023/06/30 12:37:15;;;;;;;2.20;1.40;;;21.60;99.90;;;;;;5013952;28;20193;-80
2023/06/30 12:39:40;;;;;;;2.55;1.50;;;22.10;99.90;;;;;;5018961;28;20479;-80
2023/06/30 12:42:07;;;;;;;3.75;1.40;;;22.70;99.90;;;;;;5033147;28;20077;-80
2023/06/30 12:44:32;;;;;;;3.80;1.33;;;22.20;99.90;;;;;;5031703;28;20466;-80
2023/06/30 12:46:59;;;;;;;4.20;1.52;;;22.00;41.60;;;;;;5027899;28;20087;-80